Terminal Aerodrome Forecast
Issued by NWS Bismarck, ND

Home | Current Version | Previous Version | Graphics & Text | Print | Product List | Glossary On
Versions: 1 2 3 4 5 6 7 8 9 10 11 12 13 14 15 16 17 18 19 20 21 22 23 24
000
FTUS43 KBIS 240200 AAA
TAFISN
TAF AMD
KISN 240221Z 2402/2424 33010KT P6SM SKC
     FM240600 32009KT P6SM SCT080
     FM241800 29010KT P6SM BKN140=

USA.gov is the U.S. government's official web portal to all federal, state and local government web resources and services.